Time,TemperatureF,DewpointF,PressureIn,WindDirection,WindDirectionDegrees,WindSpeedMPH,WindSpeedGustMPH,Humidity,HourlyPrecipIn,Conditions,Clouds,dailyrainin,SoftwareType,DateUTC
2013-02-15 00:10:00,40.1,39.6,29.98,NW,315,0.0,-999.0,98,-99.99,,,0.00,Acu-Link.com,2013-02-15 06:10:00,
2013-02-15 00:25:00,39.9,39.4,29.95,NW,315,0.0,-999.0,98,-99.99,,,0.00,Acu-Link.com,2013-02-15 06:25:00,
2013-02-15 00:40:00,40.3,39.8,29.96,NNE,22,0.0,-999.0,98,-99.99,,,0.00,Acu-Link.com,2013-02-15 06:40:00,
2013-02-15 00:55:00,39.9,39.4,29.99,WNW,292,0.0,-999.0,98,-99.99,,,0.00,Acu-Link.com,2013-02-15 06:55:00,
2013-02-15 01:10:00,39.7,39.2,30.00,West,270,0.0,-999.0,98,-99.99,,,0.00,Acu-Link.com,2013-02-15 07:10:00,
2013-02-15 01:25:00,39.9,39.4,29.98,West,270,0.0,-999.0,98,-99.99,,,0.00,Acu-Link.com,2013-02-15 07:25:00,
2013-02-15 01:40:00,39.4,38.9,29.99,West,270,0.0,-999.0,98,-99.99,,,0.00,Acu-Link.com,2013-02-15 07:40:00,
2013-02-15 01:55:00,39.2,38.7,29.97,NNE,22,0.0,-999.0,98,-99.99,,,0.00,Acu-Link.com,2013-02-15 07:55:00,
2013-02-15 02:10:00,39.2,38.7,30.00,WNW,292,0.0,-999.0,98,-99.99,,,0.00,Acu-Link.com,2013-02-15 08:10:00,
2013-02-15 02:26:00,38.8,38.3,29.97,WNW,292,0.0,-999.0,98,-99.99,,,0.00,Acu-Link.com,2013-02-15 08:26:00,
2013-02-15 02:41:00,38.3,37.8,29.98,WNW,292,0.0,-999.0,98,-99.99,,,0.00,Acu-Link.com,2013-02-15 08:41:00,
2013-02-15 02:56:00,37.9,37.4,29.99,WNW,292,0.0,-999.0,98,-99.99,,,0.00,Acu-Link.com,2013-02-15 08:56:00,
2013-02-15 03:17:00,38.1,37.6,29.97,WNW,292,0.0,-999.0,98,-99.99,,,0.00,Acu-Link.com,2013-02-15 09:17:00,
2013-02-15 03:33:00,37.9,37.4,30.00,NNW,337,0.0,-999.0,98,-99.99,,,0.00,Acu-Link.com,2013-02-15 09:33:00,
2013-02-15 03:48:00,37.8,37.3,29.99,NW,315,0.0,-999.0,98,-99.99,,,0.00,Acu-Link.com,2013-02-15 09:48:00,
2013-02-15 04:03:00,37.4,36.9,30.00,WNW,292,0.0,-999.0,98,-99.99,,,0.00,Acu-Link.com,2013-02-15 10:03:00,
2013-02-15 04:18:00,37.0,36.5,29.97,WNW,292,0.0,-999.0,98,-99.99,,,0.00,Acu-Link.com,2013-02-15 10:18:00,
2013-02-15 04:34:00,36.7,36.2,29.97,WNW,292,0.0,-999.0,98,-99.99,,,0.00,Acu-Link.com,2013-02-15 10:34:00,
2013-02-15 04:49:00,36.3,35.8,30.01,WNW,292,0.0,-999.0,98,-99.99,,,0.00,Acu-Link.com,2013-02-15 10:49:00,
2013-02-15 05:04:00,37.4,36.9,30.02,WNW,292,0.0,-999.0,98,-99.99,,,0.00,Acu-Link.com,2013-02-15 11:04:00,
2013-02-15 05:19:00,36.7,36.2,30.02,WNW,292,0.0,-999.0,98,-99.99,,,0.00,Acu-Link.com,2013-02-15 11:19:00,
2013-02-15 05:34:00,36.7,36.2,30.02,WNW,292,0.0,-999.0,98,-99.99,,,0.00,Acu-Link.com,2013-02-15 11:34:00,
2013-02-15 05:49:00,36.3,35.8,29.99,WNW,292,0.0,-999.0,98,-99.99,,,0.00,Acu-Link.com,2013-02-15 11:49:00,
2013-02-15 06:04:00,35.6,35.1,30.02,WNW,292,0.0,-999.0,98,-99.99,,,0.00,Acu-Link.com,2013-02-15 12:04:00,
2013-02-15 06:19:00,36.3,35.8,30.03,WNW,292,0.0,-999.0,98,-99.99,,,0.00,Acu-Link.com,2013-02-15 12:19:00,
2013-02-15 06:34:00,35.6,35.1,30.02,WNW,292,0.0,-999.0,98,-99.99,,,0.00,Acu-Link.com,2013-02-15 12:34:00,
2013-02-15 06:49:00,35.6,35.1,30.00,WNW,292,0.0,-999.0,98,-99.99,,,0.00,Acu-Link.com,2013-02-15 12:49:00,
2013-02-15 07:05:00,35.4,34.9,30.01,WNW,292,0.0,-999.0,98,-99.99,,,0.00,Acu-Link.com,2013-02-15 13:05:00,
2013-02-15 07:20:00,37.8,37.3,30.05,WNW,292,0.0,-999.0,98,-99.99,,,0.00,Acu-Link.com,2013-02-15 13:20:00,
2013-02-15 07:35:00,41.5,41.0,30.04,WNW,292,0.0,-999.0,98,-99.99,,,0.00,Acu-Link.com,2013-02-15 13:35:00,
2013-02-15 07:50:00,45.3,44.8,30.06,WNW,292,0.0,-999.0,98,-99.99,,,0.00,Acu-Link.com,2013-02-15 13:50:00,
2013-02-15 08:05:00,50.4,48.2,30.03,NNE,22,0.0,-999.0,92,-99.99,,,0.00,Acu-Link.com,2013-02-15 14:05:00,
2013-02-15 08:20:00,50.9,48.1,30.07,NNE,22,0.0,-999.0,90,-99.99,,,0.00,Acu-Link.com,2013-02-15 14:20:00,
2013-02-15 08:35:00,51.1,47.1,30.03,East,90,2.2,-999.0,86,-99.99,,,0.00,Acu-Link.com,2013-02-15 14:35:00,
2013-02-15 08:50:00,53.8,48.4,30.07,East,90,2.2,-999.0,82,-99.99,,,0.00,Acu-Link.com,2013-02-15 14:50:00,
2013-02-15 09:05:00,53.8,47.8,30.07,East,90,0.0,-999.0,80,-99.99,,,0.00,Acu-Link.com,2013-02-15 15:05:00,
2013-02-15 09:21:00,56.7,49.6,30.04,ESE,112,1.1,-999.0,77,-99.99,,,0.00,Acu-Link.com,2013-02-15 15:21:00,
2013-02-15 09:36:00,56.7,47.4,30.07,West,270,1.7,-999.0,71,-99.99,,,0.00,Acu-Link.com,2013-02-15 15:36:00,
2013-02-15 09:51:00,59.4,48.4,30.06,SSE,157,0.0,-999.0,67,-99.99,,,0.00,Acu-Link.com,2013-02-15 15:51:00,
2013-02-15 10:06:00,59.7,47.9,30.04,ESE,112,3.2,-999.0,65,-99.99,,,0.00,Acu-Link.com,2013-02-15 16:06:00,
2013-02-15 10:21:00,60.4,47.3,30.07,WNW,292,6.3,-999.0,62,-99.99,,,0.00,Acu-Link.com,2013-02-15 16:21:00,
2013-02-15 10:36:00,60.6,46.6,30.04,WSW,247,3.7,-999.0,60,-99.99,,,0.00,Acu-Link.com,2013-02-15 16:36:00,
2013-02-15 10:51:00,62.4,47.9,30.05,NNW,337,3.7,-999.0,59,-99.99,,,0.00,Acu-Link.com,2013-02-15 16:51:00,
2013-02-15 11:06:00,63.5,47.0,30.06,NW,315,6.3,-999.0,55,-99.99,,,0.00,Acu-Link.com,2013-02-15 17:06:00,
2013-02-15 11:21:00,63.7,47.2,30.06,WNW,292,3.2,-999.0,55,-99.99,,,0.00,Acu-Link.com,2013-02-15 17:21:00,
2013-02-15 11:37:00,64.4,47.4,30.05,NW,315,4.7,-999.0,54,-99.99,,,0.00,Acu-Link.com,2013-02-15 17:37:00,
2013-02-15 11:52:00,65.1,47.5,30.00,West,270,5.3,-999.0,53,-99.99,,,0.00,Acu-Link.com,2013-02-15 17:52:00,
2013-02-15 12:07:00,64.9,46.8,30.00,WNW,292,5.8,-999.0,52,-99.99,,,0.00,Acu-Link.com,2013-02-15 18:07:00,
2013-02-15 12:22:00,65.1,47.5,30.01,West,270,6.8,-999.0,53,-99.99,,,0.00,Acu-Link.com,2013-02-15 18:22:00,
2013-02-15 12:37:00,65.8,47.7,30.02,NE,45,6.8,-999.0,52,-99.99,,,0.00,Acu-Link.com,2013-02-15 18:37:00,
2013-02-15 12:58:00,66.2,47.5,29.97,ENE,67,2.7,-999.0,51,-99.99,,,0.00,Acu-Link.com,2013-02-15 18:58:00,
2013-02-15 13:13:00,66.0,46.8,29.97,NNW,337,6.8,-999.0,50,-99.99,,,0.00,Acu-Link.com,2013-02-15 19:13:00,
2013-02-15 13:28:00,66.6,47.4,30.00,NE,45,3.2,-999.0,50,-99.99,,,0.00,Acu-Link.com,2013-02-15 19:28:00,
2013-02-15 13:43:00,66.0,46.3,29.99,NNW,337,1.7,-999.0,49,-99.99,,,0.00,Acu-Link.com,2013-02-15 19:43:00,
2013-02-15 13:58:00,67.1,48.4,29.99,West,270,7.3,-999.0,51,-99.99,,,0.00,Acu-Link.com,2013-02-15 19:58:00,
2013-02-15 14:14:00,67.3,47.5,29.98,West,270,5.8,-999.0,49,-99.99,,,0.00,Acu-Link.com,2013-02-15 20:14:00,
2013-02-15 14:29:00,67.6,47.2,29.95,WSW,247,7.8,-999.0,48,-99.99,,,0.00,Acu-Link.com,2013-02-15 20:29:00,
2013-02-15 14:44:00,67.1,45.6,29.97,West,270,6.3,-999.0,46,-99.99,,,0.00,Acu-Link.com,2013-02-15 20:44:00,
2013-02-15 14:59:00,67.6,46.1,29.97,West,270,5.8,-999.0,46,-99.99,,,0.00,Acu-Link.com,2013-02-15 20:59:00,
2013-02-15 15:14:00,66.9,47.6,29.96,WNW,292,5.3,-999.0,50,-99.99,,,0.00,Acu-Link.com,2013-02-15 21:14:00,
2013-02-15 15:29:00,68.7,48.8,29.97,WNW,292,4.2,-999.0,49,-99.99,,,0.00,Acu-Link.com,2013-02-15 21:29:00,
2013-02-15 15:44:00,66.7,48.0,29.93,NW,315,7.3,-999.0,51,-99.99,,,0.00,Acu-Link.com,2013-02-15 21:44:00,
2013-02-15 15:59:00,66.4,48.2,29.92,West,270,5.8,-999.0,52,-99.99,,,0.00,Acu-Link.com,2013-02-15 21:59:00,
2013-02-15 16:14:00,65.7,47.6,29.96,SW,225,5.8,-999.0,52,-99.99,,,0.00,Acu-Link.com,2013-02-15 22:14:00,
2013-02-15 16:30:00,66.0,46.8,29.94,WNW,292,7.8,-999.0,50,-99.99,,,0.00,Acu-Link.com,2013-02-15 22:30:00,
2013-02-15 16:45:00,65.7,46.5,29.96,West,270,3.7,-999.0,50,-99.99,,,0.00,Acu-Link.com,2013-02-15 22:45:00,
2013-02-15 17:00:00,65.7,46.5,29.96,West,270,6.3,-999.0,50,-99.99,,,0.00,Acu-Link.com,2013-02-15 23:00:00,
2013-02-15 17:15:00,64.6,46.6,29.97,SW,225,5.8,-999.0,52,-99.99,,,0.00,Acu-Link.com,2013-02-15 23:15:00,
2013-02-15 17:30:00,64.2,46.2,29.94,NNW,337,1.1,-999.0,52,-99.99,,,0.00,Acu-Link.com,2013-02-15 23:30:00,
2013-02-15 17:45:00,62.4,46.5,29.94,WNW,292,5.8,-999.0,56,-99.99,,,0.00,Acu-Link.com,2013-02-15 23:45:00,
2013-02-15 18:00:00,61.2,45.8,29.96,NW,315,2.7,-999.0,57,-99.99,,,0.00,Acu-Link.com,2013-02-16 00:00:00,
2013-02-15 18:15:00,60.1,44.8,29.96,ENE,67,3.2,-999.0,57,-99.99,,,0.00,Acu-Link.com,2013-02-16 00:15:00,
2013-02-15 18:30:00,59.5,44.7,29.94,NNW,337,2.2,-999.0,58,-99.99,,,0.00,Acu-Link.com,2013-02-16 00:30:00,
2013-02-15 18:46:00,58.6,44.8,29.95,WNW,292,2.7,-999.0,60,-99.99,,,0.00,Acu-Link.com,2013-02-16 00:46:00,
2013-02-15 19:03:00,58.6,45.2,29.99,WNW,292,6.8,-999.0,61,-99.99,,,0.00,Acu-Link.com,2013-02-16 01:03:00,
2013-02-15 19:19:00,58.1,45.1,29.99,WNW,292,5.8,-999.0,62,-99.99,,,0.00,Acu-Link.com,2013-02-16 01:19:00,
2013-02-15 19:34:00,57.6,44.7,29.98,NNW,337,7.3,-999.0,62,-99.99,,,0.00,Acu-Link.com,2013-02-16 01:34:00,
2013-02-15 19:49:00,56.7,44.7,30.00,NW,315,8.3,-999.0,64,-99.99,,,0.00,Acu-Link.com,2013-02-16 01:49:00,
2013-02-15 20:04:00,56.1,44.9,30.01,WNW,292,4.7,-999.0,66,-99.99,,,0.00,Acu-Link.com,2013-02-16 02:04:00,
2013-02-15 20:19:00,55.6,44.8,29.99,NW,315,3.7,-999.0,67,-99.99,,,0.00,Acu-Link.com,2013-02-16 02:19:00,
2013-02-15 20:34:00,55.0,45.0,30.03,North,0,8.3,-999.0,69,-99.99,,,0.00,Acu-Link.com,2013-02-16 02:34:00,
2013-02-15 20:49:00,54.7,45.1,30.04,WNW,292,4.2,-999.0,70,-99.99,,,0.00,Acu-Link.com,2013-02-16 02:49:00,
2013-02-15 21:04:00,54.5,45.7,30.05,WNW,292,4.7,-999.0,72,-99.99,,,0.00,Acu-Link.com,2013-02-16 03:04:00,
2013-02-15 21:19:00,54.0,46.3,30.03,West,270,3.7,-999.0,75,-99.99,,,0.00,Acu-Link.com,2013-02-16 03:19:00,
2013-02-15 21:35:00,53.4,46.0,30.03,North,0,5.8,-999.0,76,-99.99,,,0.00,Acu-Link.com,2013-02-16 03:35:00,
2013-02-15 21:50:00,53.1,46.1,30.05,NW,315,4.7,-999.0,77,-99.99,,,0.00,Acu-Link.com,2013-02-16 03:50:00,
2013-02-15 22:05:00,52.7,45.7,30.05,North,0,6.8,-999.0,77,-99.99,,,0.00,Acu-Link.com,2013-02-16 04:05:00,
2013-02-15 22:20:00,52.7,46.0,30.05,North,0,6.8,-999.0,78,-99.99,,,0.00,Acu-Link.com,2013-02-16 04:20:00,
2013-02-15 22:35:00,52.3,46.0,30.05,West,270,2.7,-999.0,79,-99.99,,,0.00,Acu-Link.com,2013-02-16 04:35:00,
2013-02-15 22:50:00,52.0,46.0,30.05,NNW,337,6.3,-999.0,80,-99.99,,,0.00,Acu-Link.com,2013-02-16 04:50:00,
2013-02-15 23:05:00,51.6,45.6,30.05,WNW,292,4.2,-999.0,80,-99.99,,,0.00,Acu-Link.com,2013-02-16 05:05:00,
2013-02-15 23:20:00,51.4,45.4,30.08,ENE,67,4.2,-999.0,80,-99.99,,,0.00,Acu-Link.com,2013-02-16 05:20:00,
2013-02-15 23:35:00,51.3,45.3,30.08,NNE,22,0.0,-999.0,80,-99.99,,,0.00,Acu-Link.com,2013-02-16 05:35:00,
2013-02-15 23:51:00,51.1,45.5,30.07,NW,315,2.7,-999.0,81,-99.99,,,0.00,Acu-Link.com,2013-02-16 05:51:00,